Time;durP1;ratioP1;P1;durP2;ratioP2;P2;SDS_P1;SDS_P2;PMS_P1;PMS_P2;Temp;Humidity;BMP_temperature;BMP_pressure;BME280_temperature;BME280_humidity;BME280_pressure;Samples;Min_cycle;Max_cycle;Signal;HPM_P1;HPM_P2
2021/01/23 00:01:45;;;;;;;11.38;2.15;;;7.40;77.80;;;;;;5055563;28;20461;-75
2021/01/23 00:04:11;;;;;;;12.63;2.22;;;7.40;77.80;;;;;;5055313;28;20037;-75
2021/01/23 00:06:36;;;;;;;12.20;2.10;;;7.60;78.10;;;;;;5055043;28;20115;-75
2021/01/23 00:09:02;;;;;;;9.20;1.98;;;7.50;78.00;;;;;;5055378;28;20044;-74
2021/01/23 00:11:28;;;;;;;9.63;1.73;;;7.60;78.10;;;;;;5054299;28;20117;-75
2021/01/23 00:13:54;;;;;;;7.57;1.92;;;7.50;78.10;;;;;;5055295;28;20044;-75
2021/01/23 00:16:20;;;;;;;7.97;1.75;;;7.40;78.10;;;;;;5054919;28;20139;-78
2021/01/23 00:18:45;;;;;;;7.32;1.63;;;7.60;78.30;;;;;;5048248;28;20119;-78
2021/01/23 00:21:11;;;;;;;9.43;1.17;;;7.60;78.40;;;;;;5038453;28;20099;-75
2021/01/23 00:23:37;;;;;;;8.18;1.05;;;7.60;78.50;;;;;;5034731;28;20042;-76
2021/01/23 00:26:03;;;;;;;6.43;1.20;;;7.90;78.70;;;;;;5034960;28;20492;-76
2021/01/23 00:28:29;;;;;;;9.23;1.50;;;7.80;78.70;;;;;;5034629;28;20037;-77
2021/01/23 00:30:55;;;;;;;6.93;1.10;;;7.70;78.60;;;;;;5035098;28;20045;-77
2021/01/23 00:33:20;;;;;;;4.38;1.08;;;7.70;78.70;;;;;;5034778;28;20045;-77
2021/01/23 00:35:46;;;;;;;8.50;1.42;;;7.70;78.70;;;;;;5034918;28;20041;-77
2021/01/23 00:38:12;;;;;;;7.75;1.55;;;7.80;78.80;;;;;;5034643;28;20037;-77
2021/01/23 00:40:38;;;;;;;8.07;1.98;;;7.80;78.90;;;;;;5034501;28;20061;-77
2021/01/23 00:43:03;;;;;;;5.13;1.50;;;7.80;78.90;;;;;;5017029;28;20037;-77
2021/01/23 00:45:29;;;;;;;11.35;1.45;;;7.70;79.40;;;;;;5034719;28;20413;-78
2021/01/23 00:47:55;;;;;;;9.50;1.23;;;7.70;78.90;;;;;;5034896;28;20044;-78
2021/01/23 00:50:21;;;;;;;7.40;1.20;;;7.90;79.00;;;;;;5034635;28;20052;-79
2021/01/23 00:52:46;;;;;;;5.18;0.95;;;7.80;78.90;;;;;;5034204;28;20118;-78
2021/01/23 00:55:13;;;;;;;9.98;1.17;;;7.80;78.90;;;;;;5034212;28;20061;-77
2021/01/23 00:57:39;;;;;;;7.95;1.20;;;8.00;79.20;;;;;;5034508;28;20061;-78
2021/01/23 01:00:08;;;;;;;5.88;1.00;;;8.10;79.20;;;;;;5034432;28;20126;-78
2021/01/23 01:02:34;;;;;;;7.63;1.23;;;8.20;79.20;;;;;;5052579;23;20106;-78
2021/01/23 01:04:59;;;;;;;6.95;1.02;;;8.20;79.20;;;;;;5041848;28;20041;-78
2021/01/23 01:07:25;;;;;;;9.35;1.30;;;8.10;79.10;;;;;;5033404;28;20047;-78
2021/01/23 01:09:51;;;;;;;12.80;3.30;;;8.20;79.20;;;;;;5034459;28;20500;-78
2021/01/23 01:12:17;;;;;;;7.20;1.98;;;8.00;79.10;;;;;;5052666;28;20040;-78
2021/01/23 01:14:42;;;;;;;8.65;2.30;;;8.30;79.20;;;;;;5052815;28;20045;-78
2021/01/23 01:17:08;;;;;;;8.85;1.00;;;8.30;79.30;;;;;;5053883;28;20095;-78
2021/01/23 01:19:34;;;;;;;7.10;0.70;;;8.30;79.30;;;;;;5054215;28;20065;-78
2021/01/23 01:22:00;;;;;;;6.70;0.68;;;8.40;79.40;;;;;;5053820;28;20396;-78
2021/01/23 01:24:25;;;;;;;4.68;0.90;;;8.40;79.50;;;;;;5053707;28;20053;-78
2021/01/23 01:26:51;;;;;;;5.68;0.50;;;8.40;79.60;;;;;;5053576;28;20041;-77
2021/01/23 01:29:17;;;;;;;3.63;0.45;;;8.30;79.70;;;;;;5053531;28;20108;-78
2021/01/23 01:31:43;;;;;;;3.85;0.30;;;8.20;79.80;;;;;;5054313;28;20043;-77
2021/01/23 01:34:09;;;;;;;4.40;0.25;;;8.70;80.30;;;;;;5052917;28;20163;-78
2021/01/23 01:36:34;;;;;;;1.17;0.10;;;8.30;80.00;;;;;;5049774;28;20045;-77
2021/01/23 01:39:00;;;;;;;3.75;0.00;;;8.40;80.10;;;;;;5053525;28;20040;-77
2021/01/23 01:41:26;;;;;;;4.43;0.00;;;8.40;80.20;;;;;;5054196;28;20044;-74
2021/01/23 01:43:52;;;;;;;1.40;0.00;;;8.40;80.40;;;;;;5053764;28;20129;-73
2021/01/23 01:46:18;;;;;;;1.05;0.00;;;8.30;80.50;;;;;;5053311;28;20420;-73
2021/01/23 01:48:48;;;;;;;0.30;0.00;;;8.50;80.70;;;;;;5053304;28;20550;-73
2021/01/23 01:51:15;;;;;;;0.88;0.00;;;8.30;80.60;;;;;;5053894;28;20039;-73
2021/01/23 01:53:42;;;;;;;1.23;0.00;;;8.20;80.40;;;;;;5053449;28;20116;-76
2021/01/23 01:56:08;;;;;;;1.35;0.00;;;8.30;80.40;;;;;;5053813;28;20048;-76
2021/01/23 01:58:34;;;;;;;1.08;0.00;;;8.30;80.40;;;;;;5052368;28;20116;-76
2021/01/23 02:00:59;;;;;;;1.42;0.00;;;8.20;80.30;;;;;;5053461;28;20073;-76
2021/01/23 02:03:56;;;;;;;1.65;0.10;;;8.60;80.50;;;;;;5053010;28;20512;-77
2021/01/23 02:06:25;;;;;;;1.45;0.00;;;8.40;80.20;;;;;;5053100;28;20083;-78
2021/01/23 02:09:05;;;;;;;0.93;0.00;;;8.40;80.10;;;;;;5053777;28;20037;-78
2021/01/23 02:11:49;;;;;;;1.17;0.00;;;8.20;80.10;;;;;;5052951;28;20043;-74
2021/01/23 02:14:48;;;;;;;0.15;0.00;;;8.40;80.20;;;;;;5053583;28;20041;-75
2021/01/23 02:17:16;;;;;;;0.10;0.00;;;8.40;80.30;;;;;;5053569;28;20067;-75
2021/01/23 02:20:03;;;;;;;1.27;0.00;;;8.30;80.40;;;;;;5053530;28;20041;-75
2021/01/23 02:22:50;;;;;;;1.23;0.00;;;8.30;80.90;;;;;;5053229;28;20045;-76
2021/01/23 02:25:18;;;;;;;0.32;0.00;;;8.20;80.20;;;;;;5053336;28;20041;-77
2021/01/23 02:27:52;;;;;;;0.88;0.00;;;8.20;80.40;;;;;;5053313;28;20037;-77
2021/01/23 02:30:45;;;;;;;2.28;0.00;;;8.20;80.60;;;;;;5053730;28;20036;-75
2021/01/23 02:33:13;;;;;;;2.38;0.00;;;8.40;80.80;;;;;;5053392;28;20037;-75
2021/01/23 02:35:41;;;;;;;2.45;0.00;;;8.30;80.70;;;;;;5056663;28;20040;-75
2021/01/23 02:38:08;;;;;;;0.73;0.00;;;8.50;80.80;;;;;;5056886;28;20069;-75
2021/01/23 02:40:34;;;;;;;0.80;0.00;;;8.50;80.80;;;;;;5057174;28;20068;-75
2021/01/23 02:43:03;;;;;;;0.45;0.00;;;8.50;80.90;;;;;;5057280;28;20040;-75
2021/01/23 02:45:28;;;;;;;0.73;0.00;;;8.50;80.90;;;;;;5057126;28;20068;-75
2021/01/23 02:47:54;;;;;;;0.30;0.00;;;8.50;81.00;;;;;;5057142;28;20492;-75
2021/01/23 02:50:20;;;;;;;0.15;0.00;;;8.20;80.70;;;;;;5057247;28;20487;-75
2021/01/23 02:53:11;;;;;;;1.67;0.00;;;8.50;81.00;;;;;;5057278;28;20037;-75
2021/01/23 02:55:41;;;;;;;3.10;0.08;;;8.50;81.10;;;;;;5057088;28;20064;-75
2021/01/23 02:58:09;;;;;;;1.88;0.00;;;8.50;81.00;;;;;;5056818;28;20048;-75
2021/01/23 03:00:37;;;;;;;0.75;0.00;;;8.70;81.20;;;;;;5056972;28;20111;-75
2021/01/23 03:03:04;;;;;;;1.95;0.00;;;8.70;81.20;;;;;;5056492;28;20154;-75
2021/01/23 03:05:35;;;;;;;0.77;0.00;;;8.60;81.10;;;;;;5056217;28;20103;-75
2021/01/23 03:08:01;;;;;;;5.03;0.10;;;8.70;81.10;;;;;;5056725;28;20033;-76
2021/01/23 03:10:37;;;;;;;3.35;0.10;;;8.70;81.30;;;;;;5056851;28;20043;-77
2021/01/23 03:13:03;;;;;;;3.28;0.10;;;8.80;81.60;;;;;;5056680;28;20043;-75
2021/01/23 03:15:29;;;;;;;5.85;0.10;;;8.70;81.50;;;;;;5056831;28;20051;-75
2021/01/23 03:17:55;;;;;;;5.45;0.28;;;8.70;81.60;;;;;;5056705;28;20036;-75
2021/01/23 03:20:21;;;;;;;1.77;0.10;;;8.70;81.70;;;;;;5056484;28;20037;-73
2021/01/23 03:22:47;;;;;;;2.72;0.10;;;8.60;81.80;;;;;;5056023;28;20107;-73
2021/01/23 03:25:13;;;;;;;2.00;0.00;;;8.50;81.90;;;;;;5055740;28;20125;-73
2021/01/23 03:27:39;;;;;;;4.88;0.10;;;8.50;82.10;;;;;;5056123;28;20047;-73
2021/01/23 03:30:05;;;;;;;3.08;0.00;;;8.50;82.20;;;;;;5056062;28;20033;-74
2021/01/23 03:32:31;;;;;;;2.45;0.00;;;8.40;82.00;;;;;;5056122;28;20119;-74
2021/01/23 03:34:57;;;;;;;4.00;0.10;;;8.40;82.00;;;;;;5056266;28;20123;-75
2021/01/23 03:37:26;;;;;;;2.60;0.00;;;8.40;82.10;;;;;;5055843;28;20067;-76
2021/01/23 03:39:52;;;;;;;2.72;0.00;;;8.40;81.90;;;;;;5055763;28;20098;-76
2021/01/23 03:42:18;;;;;;;2.00;0.10;;;8.40;81.90;;;;;;5055187;28;20044;-75
2021/01/23 03:44:44;;;;;;;2.83;0.10;;;8.30;81.70;;;;;;5054296;28;20099;-74
2021/01/23 03:47:10;;;;;;;3.75;0.20;;;8.30;81.30;;;;;;5054888;28;20133;-76
2021/01/23 03:49:36;;;;;;;3.22;0.10;;;8.20;81.40;;;;;;5055786;28;20067;-76
2021/01/23 03:52:03;;;;;;;2.72;0.10;;;8.30;81.50;;;;;;5055401;28;20128;-76
2021/01/23 03:54:29;;;;;;;5.72;0.40;;;8.50;81.60;;;;;;5055362;28;20055;-76
2021/01/23 03:56:54;;;;;;;4.38;0.52;;;8.00;81.50;;;;;;5055659;28;20036;-77
2021/01/23 03:59:20;;;;;;;2.92;0.22;;;8.20;81.90;;;;;;5055335;28;20051;-77
2021/01/23 04:01:46;;;;;;;2.30;0.20;;;8.10;81.90;;;;;;5055204;28;20072;-77
2021/01/23 04:04:12;;;;;;;2.33;0.08;;;8.10;82.00;;;;;;5055659;28;20126;-77
2021/01/23 04:06:38;;;;;;;5.85;0.10;;;8.00;82.10;;;;;;5055413;28;20048;-79
2021/01/23 04:09:04;;;;;;;4.97;0.30;;;8.10;82.20;;;;;;5037887;28;20039;-78
2021/01/23 04:11:30;;;;;;;4.88;0.10;;;8.10;82.30;;;;;;5055052;28;20067;-79
2021/01/23 04:13:55;;;;;;;8.68;0.40;;;8.20;82.20;;;;;;5055221;28;20037;-78
2021/01/23 04:16:21;;;;;;;4.93;0.22;;;8.10;82.10;;;;;;5054299;28;20518;-79
2021/01/23 04:18:47;;;;;;;5.00;0.40;;;7.80;81.90;;;;;;5055588;28;20035;-78
2021/01/23 04:21:13;;;;;;;5.88;0.20;;;7.80;82.00;;;;;;5055491;28;20075;-78
2021/01/23 04:23:39;;;;;;;5.05;0.28;;;8.00;82.30;;;;;;5055156;28;20116;-78
2021/01/23 04:26:05;;;;;;;6.57;0.40;;;7.70;82.20;;;;;;5054821;28;20045;-77
2021/01/23 04:28:31;;;;;;;4.38;0.38;;;7.70;82.20;;;;;;5055101;28;20439;-77
2021/01/23 04:30:57;;;;;;;8.73;0.35;;;7.70;81.90;;;;;;5055556;28;20056;-77
2021/01/23 04:33:22;;;;;;;8.55;0.25;;;7.70;81.70;;;;;;5055220;28;20047;-77
2021/01/23 04:35:48;;;;;;;5.05;0.35;;;7.50;81.60;;;;;;5055233;28;20419;-78
2021/01/23 04:38:14;;;;;;;6.25;0.43;;;7.80;81.60;;;;;;5055356;28;20037;-77
2021/01/23 04:40:40;;;;;;;4.78;0.20;;;7.80;81.50;;;;;;5054959;28;20032;-78
2021/01/23 04:43:09;;;;;;;5.70;0.40;;;7.70;81.10;;;;;;5054333;28;20098;-77
2021/01/23 04:45:34;;;;;;;6.35;0.40;;;7.50;80.80;;;;;;5055063;28;20087;-77
2021/01/23 04:48:01;;;;;;;5.30;0.10;;;7.60;81.20;;;;;;5054583;28;20068;-77
2021/01/23 04:50:26;;;;;;;7.88;0.30;;;7.40;81.30;;;;;;5054899;28;20051;-75
2021/01/23 04:52:52;;;;;;;7.25;0.50;;;7.50;81.60;;;;;;5054899;28;20495;-76
2021/01/23 04:55:18;;;;;;;6.22;0.35;;;7.70;81.60;;;;;;5054529;28;20048;-77
2021/01/23 04:57:44;;;;;;;6.75;0.60;;;7.80;81.80;;;;;;5054172;28;20037;-75
2021/01/23 05:00:11;;;;;;;7.05;0.60;;;7.60;81.80;;;;;;5054697;28;20041;-74
2021/01/23 05:02:37;;;;;;;12.00;0.60;;;7.60;81.90;;;;;;5054533;28;20130;-73
2021/01/23 05:05:05;;;;;;;7.05;0.50;;;7.50;82.00;;;;;;5054722;28;20507;-77
2021/01/23 05:07:36;;;;;;;5.50;0.30;;;7.70;82.20;;;;;;5054624;28;20127;-76
2021/01/23 05:10:17;;;;;;;7.20;0.30;;;7.60;82.30;;;;;;5054656;28;20037;-77
2021/01/23 05:12:42;;;;;;;6.70;0.30;;;7.60;82.40;;;;;;5054752;28;20073;-77
2021/01/23 05:15:11;;;;;;;4.72;0.30;;;7.80;82.60;;;;;;5053617;28;20071;-75
2021/01/23 05:17:52;;;;;;;6.43;0.45;;;7.70;82.60;;;;;;5054683;28;20128;-76
2021/01/23 05:20:41;;;;;;;7.80;0.50;;;7.70;82.40;;;;;;5054174;28;20032;-74
2021/01/23 05:23:18;;;;;;;6.20;0.60;;;8.00;82.50;;;;;;5054400;28;20045;-76
2021/01/23 05:25:48;;;;;;;6.80;0.80;;;7.90;82.30;;;;;;5053669;28;20048;-76
2021/01/23 05:28:26;;;;;;;9.30;0.77;;;7.70;82.50;;;;;;5054325;28;20086;-77
2021/01/23 05:30:53;;;;;;;9.20;0.60;;;7.90;82.10;;;;;;5054540;28;20052;-78
2021/01/23 05:33:20;;;;;;;7.88;0.50;;;7.80;82.10;;;;;;5054275;28;20052;-78
2021/01/23 05:36:01;;;;;;;7.45;0.28;;;7.80;82.10;;;;;;5054139;28;20119;-78
2021/01/23 05:38:46;;;;;;;5.13;0.38;;;7.80;82.00;;;;;;5054369;28;20098;-78
2021/01/23 05:41:13;;;;;;;2.65;0.10;;;7.60;81.70;;;;;;5054264;28;20113;-76
2021/01/23 05:43:42;;;;;;;6.22;0.20;;;7.60;81.60;;;;;;5053857;28;20128;-77
2021/01/23 05:46:13;;;;;;;7.05;0.30;;;7.50;81.60;;;;;;5054055;28;20052;-77
2021/01/23 05:48:47;;;;;;;6.00;0.40;;;7.50;81.60;;;;;;5053814;28;20120;-77
2021/01/23 05:51:14;;;;;;;3.50;0.15;;;7.40;81.60;;;;;;5053618;28;20400;-77
2021/01/23 05:53:40;;;;;;;2.20;0.30;;;7.50;81.80;;;;;;5053723;28;20036;-77
2021/01/23 05:56:06;;;;;;;4.38;0.30;;;7.50;82.40;;;;;;5053882;28;20110;-77
2021/01/23 05:58:34;;;;;;;2.67;0.10;;;7.40;81.60;;;;;;5054395;28;20051;-77
2021/01/23 06:01:23;;;;;;;3.97;0.30;;;7.40;81.40;;;;;;5054143;28;20040;-77
2021/01/23 06:03:53;;;;;;;6.10;0.50;;;7.50;81.20;;;;;;5053454;28;20053;-77
2021/01/23 06:06:19;;;;;;;2.80;0.20;;;7.10;80.90;;;;;;5053819;28;20139;-77
2021/01/23 06:08:52;;;;;;;4.32;0.52;;;7.20;80.90;;;;;;5055415;28;20071;-77
2021/01/23 06:11:18;;;;;;;4.75;0.30;;;7.20;80.70;;;;;;5056004;28;20044;-77
2021/01/23 06:13:46;;;;;;;7.45;0.85;;;7.10;80.70;;;;;;5055655;28;20048;-76
2021/01/23 06:16:31;;;;;;;8.60;0.88;;;7.00;80.40;;;;;;5055531;28;20055;-77
2021/01/23 06:18:57;;;;;;;7.30;0.70;;;7.00;80.50;;;;;;5055932;28;20032;-76
2021/01/23 06:21:43;;;;;;;4.38;0.88;;;6.80;80.30;;;;;;5055734;28;20106;-75
2021/01/23 06:24:10;;;;;;;3.97;0.22;;;6.80;80.20;;;;;;5057289;28;20037;-76
2021/01/23 06:26:54;;;;;;;4.85;0.30;;;6.80;80.30;;;;;;5057954;28;20043;-76
2021/01/23 06:29:39;;;;;;;5.28;0.30;;;6.70;80.30;;;;;;5057430;28;20479;-75
2021/01/23 06:32:14;;;;;;;6.68;0.60;;;6.60;80.20;;;;;;5057354;28;20033;-79
2021/01/23 06:34:51;;;;;;;;;;;6.50;80.10;;;;;;5057990;28;20037;-77
2021/01/23 06:37:19;;;;;;;6.78;0.52;;;6.50;80.20;;;;;;5057431;28;19916;-78
2021/01/23 06:40:08;;;;;;;6.57;1.33;;;6.50;80.20;;;;;;5057520;28;20044;-78
2021/01/23 06:42:39;;;;;;;13.25;1.00;;;6.30;79.90;;;;;;5056162;28;20040;-77
2021/01/23 06:45:18;;;;;;;5.65;0.80;;;6.10;79.90;;;;;;5057274;28;20050;-77
2021/01/23 06:47:47;;;;;;;3.63;0.52;;;6.40;80.20;;;;;;5056894;28;20037;-77
2021/01/23 06:50:29;;;;;;;7.80;0.60;;;6.30;80.10;;;;;;5056816;28;20033;-74
2021/01/23 06:52:55;;;;;;;5.18;0.30;;;6.30;80.40;;;;;;5057564;28;20052;-75
2021/01/23 06:55:40;;;;;;;5.82;0.57;;;6.30;80.80;;;;;;5057342;28;20041;-74
2021/01/23 06:58:13;;;;;;;;;;;6.50;81.00;;;;;;5056338;28;20036;-77
2021/01/23 07:00:39;;;;;;;5.90;0.45;;;6.60;81.00;;;;;;5056808;28;20344;-78
2021/01/23 07:03:13;;;;;;;5.35;0.30;;;6.80;81.10;;;;;;5056355;28;20059;-77
2021/01/23 07:05:49;;;;;;;8.30;0.32;;;6.80;81.00;;;;;;5056664;28;20041;-74
2021/01/23 07:08:23;;;;;;;4.07;0.25;;;6.90;81.10;;;;;;5056343;28;20040;-73
2021/01/23 07:11:08;;;;;;;5.72;0.50;;;7.10;81.30;;;;;;5056327;28;20045;-77
2021/01/23 07:13:35;;;;;;;7.93;0.75;;;7.20;81.00;;;;;;5055761;28;20084;-77
2021/01/23 07:16:01;;;;;;;4.57;0.50;;;6.90;80.70;;;;;;5055800;28;20041;-73
2021/01/23 07:18:27;;;;;;;6.85;1.00;;;7.00;80.70;;;;;;5055808;28;20036;-77
2021/01/23 07:20:54;;;;;;;7.68;1.30;;;6.90;80.80;;;;;;5047515;28;20127;-76
2021/01/23 07:23:21;;;;;;;6.28;1.00;;;7.00;81.10;;;;;;5049133;28;20072;-73
2021/01/23 07:25:48;;;;;;;8.20;1.23;;;7.10;81.00;;;;;;5038495;28;20512;-76
2021/01/23 07:28:20;;;;;;;6.25;0.40;;;7.20;81.20;;;;;;5051310;28;20044;-77
2021/01/23 07:30:47;;;;;;;5.68;0.77;;;7.40;81.40;;;;;;5035254;28;20041;-78
2021/01/23 07:33:28;;;;;;;8.75;1.23;;;7.30;81.40;;;;;;5042928;28;20148;-75
2021/01/23 07:35:54;;;;;;;8.40;0.70;;;7.50;81.50;;;;;;5036139;28;20496;-76
2021/01/23 07:38:20;;;;;;;6.68;0.90;;;7.40;81.50;;;;;;5036257;28;20045;-75
2021/01/23 07:40:46;;;;;;;6.53;0.70;;;7.60;81.60;;;;;;5040902;28;20033;-75
2021/01/23 07:43:12;;;;;;;8.27;0.85;;;7.50;81.70;;;;;;5056093;28;20047;-74
2021/01/23 07:45:38;;;;;;;9.95;0.90;;;7.50;81.80;;;;;;5055968;28;20573;-75
2021/01/23 07:48:06;;;;;;;10.15;1.15;;;7.70;81.90;;;;;;5055830;28;20067;-76
2021/01/23 07:50:39;;;;;;;8.65;1.27;;;7.80;81.80;;;;;;5055340;28;20123;-75
2021/01/23 07:53:19;;;;;;;7.20;0.85;;;7.80;81.60;;;;;;5055383;28;20112;-76
2021/01/23 07:55:46;;;;;;;12.98;2.00;;;7.80;81.40;;;;;;5055895;28;20045;-77
2021/01/23 07:58:13;;;;;;;10.55;1.83;;;7.90;81.20;;;;;;5055788;28;20072;-77
2021/01/23 08:00:40;;;;;;;9.35;2.08;;;7.60;80.90;;;;;;5055994;28;20098;-75
2021/01/23 08:03:06;;;;;;;16.35;3.35;;;7.70;81.10;;;;;;5056096;28;20498;-74
2021/01/23 08:05:48;;;;;;;24.08;7.65;;;7.50;81.30;;;;;;5055278;28;20044;-75
2021/01/23 08:08:37;;;;;;;20.40;6.10;;;7.70;81.60;;;;;;5055532;28;20041;-77
2021/01/23 08:11:04;;;;;;;16.63;6.03;;;7.70;81.40;;;;;;5055732;28;20045;-78
2021/01/23 08:13:34;;;;;;;14.05;5.70;;;7.80;81.20;;;;;;5055190;28;20041;-78
2021/01/23 08:16:13;;;;;;;18.52;5.35;;;7.70;81.40;;;;;;5055211;28;20048;-77
2021/01/23 08:18:40;;;;;;;19.95;6.45;;;7.90;81.60;;;;;;5055144;28;20037;-77
2021/01/23 08:21:19;;;;;;;14.95;4.55;;;7.90;81.50;;;;;;5055015;28;20040;-76
2021/01/23 08:23:46;;;;;;;11.50;2.92;;;7.90;81.40;;;;;;5054906;28;20125;-78
2021/01/23 08:26:12;;;;;;;14.35;3.58;;;8.10;81.60;;;;;;5055159;28;20094;-78
2021/01/23 08:28:41;;;;;;;20.65;4.50;;;8.10;81.60;;;;;;5054991;28;20032;-77
2021/01/23 08:31:25;;;;;;;20.38;6.18;;;8.20;81.60;;;;;;5054005;28;20033;-75
2021/01/23 08:33:55;;;;;;;17.50;5.80;;;8.20;81.80;;;;;;5054411;28;20039;-76
2021/01/23 08:36:26;;;;;;;14.90;5.22;;;8.50;82.00;;;;;;5054395;28;20049;-76
2021/01/23 08:38:57;;;;;;;13.60;3.47;;;8.50;82.10;;;;;;5054403;28;20048;-76
2021/01/23 08:41:23;;;;;;;11.43;3.50;;;8.50;82.10;;;;;;5054449;28;20048;-76
2021/01/23 08:43:49;;;;;;;8.07;2.15;;;8.70;82.10;;;;;;5052714;28;20040;-76
2021/01/23 08:46:15;;;;;;;11.35;3.10;;;8.70;82.20;;;;;;5045659;28;20057;-75
2021/01/23 08:48:41;;;;;;;16.55;4.25;;;8.90;82.50;;;;;;5047555;28;20515;-75
2021/01/23 08:51:06;;;;;;;11.27;2.97;;;8.80;82.40;;;;;;5053733;28;20047;-76
2021/01/23 08:53:32;;;;;;;12.18;2.00;;;9.00;82.60;;;;;;5053525;28;20048;-75
2021/01/23 08:55:58;;;;;;;16.92;2.95;;;9.20;82.60;;;;;;5053966;28;20546;-76
2021/01/23 08:58:25;;;;;;;10.55;2.47;;;8.90;82.70;;;;;;5053554;28;20124;-76
2021/01/23 09:00:51;;;;;;;9.30;1.40;;;9.40;82.70;;;;;;5054162;28;20036;-76
2021/01/23 09:03:17;;;;;;;6.57;0.85;;;9.50;82.60;;;;;;5053985;28;20139;-76
2021/01/23 09:05:42;;;;;;;6.03;0.85;;;9.50;82.50;;;;;;5052670;28;20572;-76
2021/01/23 09:08:08;;;;;;;5.93;0.70;;;9.60;82.40;;;;;;5053360;28;20086;-77
2021/01/23 09:10:34;;;;;;;5.65;0.80;;;9.60;82.40;;;;;;5053178;28;20037;-76
2021/01/23 09:13:00;;;;;;;6.40;1.45;;;9.70;82.60;;;;;;5051226;28;20045;-77
2021/01/23 09:15:25;;;;;;;6.78;0.40;;;9.80;82.40;;;;;;5044724;28;20111;-77
2021/01/23 09:17:51;;;;;;;3.88;0.70;;;10.00;82.50;;;;;;5033843;28;20068;-77
2021/01/23 09:20:17;;;;;;;3.45;0.28;;;10.60;82.30;;;;;;5034138;28;20036;-77
2021/01/23 09:22:43;;;;;;;3.92;0.20;;;10.60;82.20;;;;;;5034161;28;20053;-77
2021/01/23 09:25:09;;;;;;;3.83;0.30;;;10.60;82.00;;;;;;5033323;28;20037;-77
2021/01/23 09:27:35;;;;;;;3.20;0.28;;;10.60;81.90;;;;;;5033969;28;20041;-77
2021/01/23 09:30:01;;;;;;;4.65;1.13;;;10.60;81.90;;;;;;5034696;28;20569;-77
2021/01/23 09:32:27;;;;;;;4.20;1.80;;;10.60;81.70;;;;;;5050692;28;20033;-77
2021/01/23 09:34:54;;;;;;;5.60;1.73;;;10.90;81.70;;;;;;5053460;28;20051;-76
2021/01/23 09:37:23;;;;;;;3.17;0.40;;;11.30;81.60;;;;;;5044325;28;20060;-77
2021/01/23 09:39:49;;;;;;;1.50;0.22;;;11.20;81.00;;;;;;5043135;28;20041;-76
2021/01/23 09:42:15;;;;;;;1.90;0.03;;;11.40;80.70;;;;;;5042361;28;20038;-77
2021/01/23 09:44:41;;;;;;;1.50;0.10;;;11.20;80.20;;;;;;5044243;28;20055;-77
2021/01/23 09:47:07;;;;;;;1.25;0.10;;;11.10;79.90;;;;;;5041912;28;20068;-77
2021/01/23 09:49:33;;;;;;;2.35;0.00;;;10.90;79.60;;;;;;5044853;28;20492;-77
2021/01/23 09:51:58;;;;;;;0.68;0.00;;;10.60;79.10;;;;;;5042802;28;20468;-75
2021/01/23 09:54:24;;;;;;;0.93;0.05;;;10.50;79.40;;;;;;5043662;28;20080;-75
2021/01/23 09:56:50;;;;;;;0.32;0.00;;;10.50;80.50;;;;;;5042097;28;20493;-77
2021/01/23 09:59:16;;;;;;;0.30;0.00;;;10.70;81.90;;;;;;5043170;28;20033;-77
2021/01/23 10:01:42;;;;;;;0.50;0.00;;;11.10;82.30;;;;;;5045291;28;20057;-78
2021/01/23 10:04:08;;;;;;;0.47;0.00;;;11.20;81.40;;;;;;5036339;28;20050;-77
2021/01/23 10:06:33;;;;;;;0.20;0.00;;;11.50;80.80;;;;;;5035336;28;20056;-76
2021/01/23 10:08:59;;;;;;;0.85;0.00;;;11.70;80.30;;;;;;5040891;28;20073;-77
2021/01/23 10:11:25;;;;;;;1.30;0.20;;;11.80;78.50;;;;;;5042933;28;20037;-76
2021/01/23 10:13:51;;;;;;;0.17;0.00;;;11.70;76.90;;;;;;5045440;28;20052;-78
2021/01/23 10:16:17;;;;;;;1.02;0.00;;;11.70;76.50;;;;;;5042098;28;20045;-76
2021/01/23 10:18:43;;;;;;;0.45;0.00;;;11.40;76.00;;;;;;5049640;28;20094;-78
2021/01/23 10:21:09;;;;;;;0.10;0.00;;;11.60;76.10;;;;;;5051977;28;20113;-77
2021/01/23 10:23:34;;;;;;;0.20;0.10;;;11.60;75.80;;;;;;5052594;28;20044;-78
2021/01/23 10:26:01;;;;;;;0.52;0.00;;;11.70;75.70;;;;;;5052332;28;20045;-75
2021/01/23 10:28:27;;;;;;;0.95;0.10;;;11.60;75.20;;;;;;5053220;28;20037;-78
2021/01/23 10:30:53;;;;;;;0.65;0.00;;;11.40;75.00;;;;;;5052049;28;20077;-77
2021/01/23 10:33:19;;;;;;;0.50;0.00;;;11.30;75.00;;;;;;5052561;28;20525;-77
2021/01/23 10:35:45;;;;;;;0.15;0.00;;;11.30;75.20;;;;;;5052223;28;20090;-78
2021/01/23 10:38:11;;;;;;;0.40;0.00;;;11.10;74.90;;;;;;5052760;28;20033;-77
2021/01/23 10:40:37;;;;;;;1.27;0.00;;;11.00;74.90;;;;;;5046759;28;20067;-78
2021/01/23 10:43:03;;;;;;;1.58;0.00;;;10.90;75.10;;;;;;5035464;28;20048;-78
2021/01/23 10:45:29;;;;;;;0.68;0.10;;;10.80;75.10;;;;;;5035006;28;20046;-79
2021/01/23 10:47:55;;;;;;;0.10;0.00;;;10.90;75.20;;;;;;5033126;28;20040;-79
2021/01/23 10:50:21;;;;;;;0.57;0.00;;;10.70;75.10;;;;;;5032979;28;20045;-79
2021/01/23 10:52:47;;;;;;;0.55;0.00;;;10.70;74.90;;;;;;5033061;28;20036;-81
2021/01/23 10:55:13;;;;;;;0.22;0.00;;;10.70;75.30;;;;;;5035163;28;20106;-80
2021/01/23 10:57:39;;;;;;;1.38;0.10;;;10.80;75.00;;;;;;5036117;28;20517;-79
2021/01/23 11:00:09;;;;;;;1.25;0.00;;;10.90;74.50;;;;;;5018469;28;20132;-80
2021/01/23 11:02:39;;;;;;;1.60;0.00;;;11.10;74.30;;;;;;5035320;28;20504;-77
2021/01/23 11:05:06;;;;;;;1.15;0.00;;;11.50;74.50;;;;;;5044574;28;20461;-77
2021/01/23 11:07:32;;;;;;;0.70;0.00;;;11.80;74.10;;;;;;5035857;28;20457;-78
2021/01/23 11:09:58;;;;;;;1.10;0.10;;;11.90;73.80;;;;;;5035739;28;20064;-77
2021/01/23 11:12:24;;;;;;;0.75;0.00;;;11.90;73.70;;;;;;5035541;28;20045;-78
2021/01/23 11:14:49;;;;;;;0.93;0.00;;;11.90;73.50;;;;;;5030222;28;20044;-79
2021/01/23 11:17:15;;;;;;;0.57;0.10;;;11.80;73.20;;;;;;5056360;28;20514;-78
2021/01/23 11:19:41;;;;;;;0.50;0.10;;;11.90;73.20;;;;;;5056070;28;20042;-78
2021/01/23 11:22:07;;;;;;;0.30;0.00;;;11.90;72.90;;;;;;5055320;28;20124;-78
2021/01/23 11:24:32;;;;;;;1.30;0.00;;;12.10;72.70;;;;;;5055422;28;20508;-78
2021/01/23 11:26:58;;;;;;;0.55;0.00;;;12.20;72.40;;;;;;5055928;28;20039;-77
2021/01/23 11:29:24;;;;;;;1.00;0.10;;;12.30;72.20;;;;;;5055569;28;20037;-78
2021/01/23 11:31:50;;;;;;;0.55;0.00;;;12.30;71.90;;;;;;5052484;28;20087;-78
2021/01/23 11:34:16;;;;;;;0.65;0.00;;;12.30;71.60;;;;;;5046589;28;20563;-76
2021/01/23 11:36:42;;;;;;;0.75;0.00;;;12.40;71.60;;;;;;5039383;28;20053;-77
2021/01/23 11:39:07;;;;;;;0.10;0.00;;;12.20;70.70;;;;;;5035537;28;20045;-77
2021/01/23 11:41:33;;;;;;;0.10;0.00;;;12.20;70.60;;;;;;5040534;28;20037;-77
2021/01/23 11:43:59;;;;;;;0.68;0.00;;;12.30;70.60;;;;;;5052232;28;20028;-79
2021/01/23 11:46:25;;;;;;;0.73;0.00;;;12.50;70.60;;;;;;5052950;28;20052;-78
2021/01/23 11:48:51;;;;;;;0.68;0.00;;;12.40;70.40;;;;;;5035896;28;20492;-78
2021/01/23 11:51:16;;;;;;;0.13;0.00;;;12.50;70.60;;;;;;5032513;28;20535;-78
2021/01/23 11:53:42;;;;;;;0.20;0.00;;;12.40;70.20;;;;;;5046063;28;20103;-77
2021/01/23 11:56:08;;;;;;;0.20;0.00;;;12.30;70.00;;;;;;5035553;28;20125;-75
2021/01/23 11:58:34;;;;;;;0.20;0.00;;;12.30;70.10;;;;;;5035550;28;20048;-75
2021/01/23 12:01:00;;;;;;;0.68;0.10;;;12.20;70.00;;;;;;5037684;28;20041;-75
2021/01/23 12:03:26;;;;;;;1.33;0.00;;;12.10;69.90;;;;;;5049345;28;20057;-77
2021/01/23 12:05:52;;;;;;;0.10;0.00;;;12.20;69.60;;;;;;5054690;28;20072;-77
2021/01/23 12:08:18;;;;;;;1.08;0.00;;;12.10;69.50;;;;;;5055287;28;20133;-78
2021/01/23 12:10:44;;;;;;;0.13;0.00;;;12.10;69.40;;;;;;5055056;28;20037;-73
2021/01/23 12:13:10;;;;;;;1.55;0.00;;;11.90;69.50;;;;;;5055408;28;20048;-72
2021/01/23 12:15:36;;;;;;;0.55;0.00;;;11.80;69.70;;;;;;5055430;28;20048;-72
2021/01/23 12:18:02;;;;;;;2.65;0.00;;;11.80;69.70;;;;;;5055123;28;20049;-75
2021/01/23 12:20:28;;;;;;;0.43;0.00;;;11.80;69.50;;;;;;5055202;28;20032;-75
2021/01/23 12:22:54;;;;;;;0.55;0.10;;;11.80;69.10;;;;;;5055139;28;20041;-75
2021/01/23 12:25:19;;;;;;;1.10;0.00;;;11.80;68.90;;;;;;5051216;28;20041;-74
2021/01/23 12:27:46;;;;;;;1.25;0.00;;;11.70;68.70;;;;;;5034455;28;20557;-74
2021/01/23 12:30:14;;;;;;;0.73;0.08;;;11.60;68.60;;;;;;5016936;28;20041;-74
2021/01/23 12:32:40;;;;;;;0.57;0.00;;;11.60;69.10;;;;;;5034838;28;20045;-76
2021/01/23 12:35:08;;;;;;;1.00;0.00;;;12.00;69.20;;;;;;5035211;28;20037;-75
2021/01/23 12:37:35;;;;;;;0.63;0.00;;;12.30;69.00;;;;;;5033931;28;20553;-73
2021/01/23 12:40:05;;;;;;;0.57;0.00;;;12.40;68.60;;;;;;5034810;28;20485;-69
2021/01/23 12:42:31;;;;;;;0.70;0.00;;;12.60;68.30;;;;;;5035061;28;20041;-71
2021/01/23 12:44:57;;;;;;;1.88;0.00;;;12.50;68.40;;;;;;5034043;28;20052;-71
2021/01/23 12:47:23;;;;;;;1.20;0.10;;;12.30;67.90;;;;;;5035032;28;20041;-70
2021/01/23 12:49:49;;;;;;;0.47;0.00;;;12.20;67.80;;;;;;5034719;28;20116;-71
2021/01/23 12:52:15;;;;;;;1.92;0.00;;;12.20;67.70;;;;;;5034894;28;20124;-70
2021/01/23 12:54:41;;;;;;;2.42;0.00;;;12.20;67.90;;;;;;5034689;28;20437;-73
2021/01/23 12:57:07;;;;;;;0.40;0.10;;;12.40;67.90;;;;;;5017130;28;20049;-69
2021/01/23 12:59:34;;;;;;;0.90;0.00;;;12.40;67.70;;;;;;5034635;28;20586;-71